Time;durP1;ratioP1;P1;durP2;ratioP2;P2;SDS_P1;SDS_P2;PMS_P1;PMS_P2;Temp;Humidity;BMP_temperature;BMP_pressure;BME280_temperature;BME280_humidity;BME280_pressure;Samples;Min_cycle;Max_cycle;Signal;HPM_P1;HPM_P2
2022/04/22 00:01:30;;;;;;;8.70;5.15;;;;;;;11.77;75.75;101005.13;5058041;28;20028;-58
2022/04/22 00:03:56;;;;;;;7.25;4.72;;;;;;;11.76;75.79;101008.72;5063982;28;20526;-59
2022/04/22 00:06:22;;;;;;;12.25;5.00;;;;;;;11.76;76.32;101006.06;5077898;28;20033;-59
2022/04/22 00:08:47;;;;;;;8.52;4.70;;;;;;;11.69;76.59;101005.50;5077798;28;20067;-57
2022/04/22 00:11:31;;;;;;;7.75;5.13;;;;;;;11.66;76.08;101002.97;5077969;28;20043;-58
2022/04/22 00:13:58;;;;;;;7.18;4.70;;;;;;;11.65;75.70;101001.28;5046085;28;20097;-58
2022/04/22 00:16:25;;;;;;;9.88;4.53;;;;;;;11.59;76.11;101009.50;5059272;28;20028;-58
2022/04/22 00:18:50;;;;;;;7.45;4.57;;;;;;;11.55;76.25;101008.78;5059663;28;20484;-58
2022/04/22 00:21:16;;;;;;;15.55;4.85;;;;;;;11.55;76.31;101011.44;5077850;28;20067;-59
2022/04/22 00:23:41;;;;;;;10.70;5.22;;;;;;;11.49;76.40;101006.41;5079190;28;20463;-59
2022/04/22 00:26:06;;;;;;;7.07;4.50;;;;;;;11.48;76.35;101007.34;5081148;28;20402;-59
2022/04/22 00:28:32;;;;;;;8.00;4.40;;;;;;;11.47;76.08;101009.16;5079208;28;20036;-59
2022/04/22 00:30:57;;;;;;;8.90;4.90;;;;;;;11.41;76.43;101008.56;5061772;28;20106;-59
2022/04/22 00:33:23;;;;;;;10.10;4.75;;;;;;;11.36;76.51;101006.13;5057021;28;20389;-59
2022/04/22 00:35:48;;;;;;;6.22;4.20;;;;;;;11.30;76.78;101001.09;5058148;28;20064;-59
2022/04/22 00:38:14;;;;;;;9.68;4.78;;;;;;;11.29;76.97;101004.66;5058683;28;20047;-59
2022/04/22 00:40:40;;;;;;;7.45;4.35;;;;;;;11.24;77.03;100998.72;5059640;28;20032;-59
2022/04/22 00:43:22;;;;;;;6.95;4.15;;;;;;;11.25;76.91;101006.63;5058973;28;20029;-59
2022/04/22 00:45:49;;;;;;;7.30;4.32;;;;;;;11.22;76.99;101012.03;5059258;28;20028;-58
2022/04/22 00:48:15;;;;;;;6.82;4.30;;;;;;;11.21;76.98;101002.38;5058890;28;20025;-58
2022/04/22 00:50:42;;;;;;;10.50;4.80;;;;;;;11.15;77.62;101006.16;5058060;28;20032;-58
2022/04/22 00:53:08;;;;;;;8.15;4.32;;;;;;;11.12;77.11;100998.34;5058633;28;20063;-58
2022/04/22 00:55:37;;;;;;;9.27;4.13;;;;;;;11.07;77.07;100994.19;5057650;28;20375;-58
2022/04/22 00:58:03;;;;;;;7.53;4.25;;;;;;;11.08;77.06;100998.56;5059502;28;20061;-58
2022/04/22 01:00:29;;;;;;;7.60;4.32;;;;;;;11.09;76.99;100990.53;5075113;28;20072;-58
2022/04/22 01:02:54;;;;;;;10.25;4.47;;;;;;;11.04;76.94;100989.88;5059377;28;20120;-58
2022/04/22 01:10:51;;;;;;;10.23;4.90;;;;;;;10.96;77.70;100989.38;5058063;28;20060;-58
2022/04/22 01:13:16;;;;;;;9.20;4.93;;;;;;;10.90;77.53;100982.53;5057825;28;21952;-59
2022/04/22 01:15:42;;;;;;;8.80;5.05;;;;;;;10.88;77.94;100978.22;5059481;28;20583;-58
2022/04/22 01:18:09;;;;;;;7.30;5.00;;;;;;;10.82;78.20;100980.22;5060896;28;20535;-58
2022/04/22 01:20:34;;;;;;;8.27;4.60;;;;;;;10.78;78.72;100981.28;5060212;28;20058;-59
2022/04/22 01:23:00;;;;;;;8.60;4.95;;;;;;;10.77;78.68;100976.91;5061473;28;20116;-59
2022/04/22 01:25:25;;;;;;;7.82;5.35;;;;;;;10.75;78.63;100969.97;5059249;28;20151;-59
2022/04/22 01:27:51;;;;;;;7.75;5.00;;;;;;;10.71;78.74;100969.22;5061693;28;20511;-60
2022/04/22 01:30:21;;;;;;;8.23;5.07;;;;;;;10.68;79.36;100974.66;5067019;28;20036;-59
2022/04/22 01:32:54;;;;;;;10.20;6.05;;;;;;;10.61;79.59;100981.16;5056864;28;20037;-59
2022/04/22 01:35:21;;;;;;;9.48;5.15;;;;;;;10.60;80.04;100975.00;5058330;28;20062;-59
2022/04/22 01:37:47;;;;;;;10.93;5.90;;;;;;;10.57;80.09;100969.81;5058732;28;20021;-59
2022/04/22 01:40:13;;;;;;;10.93;5.63;;;;;;;10.50;80.22;100968.38;5058276;28;20110;-59
2022/04/22 01:42:40;;;;;;;8.43;5.40;;;;;;;10.48;80.72;100980.81;5057591;28;20032;-59
2022/04/22 01:45:07;;;;;;;9.98;5.55;;;;;;;10.48;80.65;100968.41;5058679;28;20028;-59
2022/04/22 01:47:32;;;;;;;9.88;5.70;;;;;;;10.41;81.17;100977.56;5057364;28;20029;-59
2022/04/22 01:49:58;;;;;;;10.13;5.57;;;;;;;10.42;81.38;100983.72;5058412;28;20041;-59
2022/04/22 01:52:24;;;;;;;18.02;5.43;;;;;;;10.37;81.30;100967.16;5057346;28;20545;-59
2022/04/22 01:54:54;;;;;;;11.45;5.65;;;;;;;10.35;81.32;100972.50;5061769;28;20032;-59
2022/04/22 01:57:20;;;;;;;7.88;5.43;;;;;;;10.33;81.21;100971.69;5058229;28;20078;-59
2022/04/22 01:59:46;;;;;;;10.13;5.75;;;;;;;10.27;82.03;100967.50;5057551;28;20036;-59
2022/04/22 02:02:12;;;;;;;10.38;5.50;;;;;;;10.26;82.04;100963.13;5060666;28;20032;-58
2022/04/22 02:04:38;;;;;;;10.15;5.78;;;;;;;10.27;82.11;100964.03;5065222;28;20033;-59
2022/04/22 02:07:04;;;;;;;8.38;5.70;;;;;;;10.25;82.76;100961.41;5064564;28;20145;-59
2022/04/22 02:09:29;;;;;;;9.27;5.47;;;;;;;10.23;82.30;100957.09;5063328;28;20123;-60
2022/04/22 02:11:56;;;;;;;11.25;5.97;;;;;;;10.17;83.04;100956.44;5064849;28;20036;-59
2022/04/22 02:14:22;;;;;;;9.70;5.65;;;;;;;10.17;83.04;100948.50;5064507;28;20054;-59
2022/04/22 02:16:47;;;;;;;9.18;5.88;;;;;;;10.17;83.19;100952.94;5064387;28;20032;-59
2022/04/22 02:19:12;;;;;;;11.57;6.03;;;;;;;10.16;83.04;100949.41;5064634;28;20113;-59
2022/04/22 02:21:38;;;;;;;11.90;5.90;;;;;;;10.11;83.03;100943.47;5064170;28;20094;-59
2022/04/22 02:24:04;;;;;;;8.50;6.03;;;;;;;10.08;83.34;100935.66;5064112;28;20085;-59
2022/04/22 02:28:31;;;;;;;12.98;6.50;;;;;;;10.03;83.53;100942.94;5064099;28;20036;-59
2022/04/22 02:29:15;;;;;;;8.82;5.97;;;;;;;10.01;84.06;100928.88;5063640;28;20368;-59
2022/04/22 02:31:40;;;;;;;11.32;5.95;;;;;;;10.04;83.74;100941.13;5067607;28;20499;-59
2022/04/22 02:34:05;;;;;;;9.55;6.07;;;;;;;9.98;84.17;100944.91;5084457;28;20067;-60
2022/04/22 02:36:31;;;;;;;12.27;6.32;;;;;;;9.95;84.36;100935.31;5084504;28;20081;-59
2022/04/22 02:38:56;;;;;;;11.15;5.82;;;;;;;9.94;84.35;100938.00;5073914;28;20055;-58
2022/04/22 02:46:51;;;;;;;8.82;5.35;;;;;;;9.92;85.24;100939.84;5042759;28;20097;-60
2022/04/22 02:49:16;;;;;;;9.52;5.90;;;;;;;9.91;85.29;100940.75;5083622;28;20407;-58
2022/04/22 02:51:41;;;;;;;9.50;5.68;;;;;;;9.90;85.17;100944.34;5084246;28;20097;-58
2022/04/22 02:54:07;;;;;;;10.27;5.88;;;;;;;9.88;85.03;100936.47;5084972;28;20102;-58
2022/04/22 02:56:32;;;;;;;9.35;5.93;;;;;;;9.83;85.21;100935.78;5085391;28;20039;-59
2022/04/22 02:58:58;;;;;;;11.32;6.03;;;;;;;9.77;85.68;100934.25;5085185;28;20035;-58
2022/04/22 03:01:24;;;;;;;15.30;6.00;;;;;;;9.76;86.38;100932.53;5084685;28;20440;-59
2022/04/22 03:03:49;;;;;;;10.07;6.25;;;;;;;9.72;86.88;100933.59;5060533;28;20043;-58
2022/04/22 03:06:15;;;;;;;9.48;5.88;;;;;;;9.69;87.52;100933.69;5085506;28;20050;-58
2022/04/22 03:08:40;;;;;;;9.77;5.93;;;;;;;9.62;87.94;100932.22;5075963;28;20042;-58
2022/04/22 03:11:06;;;;;;;9.45;5.95;;;;;;;9.58;88.25;100933.25;5076304;28;20034;-59
2022/04/22 03:13:31;;;;;;;8.73;6.20;;;;;;;9.54;89.24;100923.72;5085453;28;20115;-59
2022/04/22 03:15:59;;;;;;;10.65;6.63;;;;;;;9.50;89.79;100918.56;5079558;28;20039;-59
2022/04/22 03:18:24;;;;;;;11.23;6.25;;;;;;;9.48;90.41;100917.75;5082338;28;20050;-59
2022/04/22 03:20:49;;;;;;;12.48;6.07;;;;;;;9.45;91.37;100925.81;5073956;28;20032;-59
2022/04/22 03:23:15;;;;;;;10.93;6.22;;;;;;;9.41;91.41;100925.97;5073939;28;20032;-60
2022/04/22 03:25:41;;;;;;;10.00;5.65;;;;;;;9.41;92.57;100916.28;5074544;28;20039;-59
2022/04/22 03:28:07;;;;;;;12.98;5.97;;;;;;;9.42;93.03;100914.50;5075972;28;20028;-60
2022/04/22 03:30:34;;;;;;;10.43;5.85;;;;;;;9.41;93.30;100918.94;5084548;28;20143;-59
2022/04/22 03:33:01;;;;;;;9.90;5.93;;;;;;;9.44;94.56;100923.25;5087498;28;20173;-60
2022/04/22 03:35:27;;;;;;;9.38;5.57;;;;;;;9.45;94.41;100909.97;5075817;28;20032;-58
2022/04/22 03:37:52;;;;;;;11.48;5.70;;;;;;;9.48;94.84;100917.75;5083609;28;20043;-58
2022/04/22 03:40:17;;;;;;;7.93;5.38;;;;;;;9.41;95.14;100905.72;5082724;28;20027;-59
2022/04/22 03:42:43;;;;;;;9.70;6.03;;;;;;;9.37;95.74;100912.03;5083481;28;20059;-58
2022/04/22 03:45:09;;;;;;;10.30;6.00;;;;;;;9.37;96.19;100913.81;5057342;28;20031;-59
2022/04/22 03:47:34;;;;;;;10.80;5.63;;;;;;;9.34;96.33;100910.34;5084145;28;20036;-58
2022/04/22 03:49:59;;;;;;;8.55;5.75;;;;;;;9.34;96.91;100906.88;5085870;28;20414;-58
2022/04/22 03:52:25;;;;;;;9.57;5.28;;;;;;;9.36;97.48;100910.31;5084088;28;20056;-58
2022/04/22 03:54:50;;;;;;;9.90;5.55;;;;;;;9.35;97.33;100906.81;5082125;28;20033;-59
2022/04/22 04:00:00;;;;;;;9.65;5.55;;;;;;;9.34;97.76;100906.88;5082471;28;20067;-59
2022/04/22 04:02:25;;;;;;;10.05;5.85;;;;;;;9.34;97.89;100899.78;5068215;28;20115;-59
2022/04/22 04:04:51;;;;;;;9.88;6.00;;;;;;;9.33;97.91;100916.59;5081233;28;20145;-59
2022/04/22 04:07:17;;;;;;;9.40;5.25;;;;;;;9.30;98.29;100910.56;5068827;28;20383;-59
2022/04/22 04:17:54;;;;;;;10.52;6.35;;;;;;;9.26;99.12;100916.84;5081508;28;20093;-59
2022/04/22 04:23:17;;;;;;;10.23;5.97;;;;;;;9.23;99.37;100901.13;5065443;28;20048;-58
2022/04/22 04:25:44;;;;;;;11.85;6.70;;;;;;;9.23;99.17;100904.63;5065572;28;20094;-58
2022/04/22 04:28:10;;;;;;;11.50;6.80;;;;;;;9.21;99.73;100909.13;5082058;28;20110;-58
2022/04/22 04:30:41;;;;;;;13.68;6.93;;;;;;;9.18;100.00;100910.09;5079317;28;20024;-58
2022/04/22 04:33:10;;;;;;;12.95;7.20;;;;;;;9.20;100.00;100906.53;5079613;28;20086;-58
2022/04/22 04:35:38;;;;;;;10.13;6.68;;;;;;;9.18;100.00;100909.22;5081656;28;20035;-59
2022/04/22 04:38:05;;;;;;;10.85;7.05;;;;;;;9.22;100.00;100915.25;5080316;28;20028;-59
2022/04/22 04:40:32;;;;;;;11.32;7.20;;;;;;;9.23;100.00;100912.53;5080042;28;20434;-59
2022/04/22 04:42:58;;;;;;;13.68;7.45;;;;;;;9.24;99.62;100913.44;5080058;28;20485;-59
2022/04/22 04:45:23;;;;;;;12.02;7.55;;;;;;;9.24;100.00;100913.44;5066688;28;20032;-60
2022/04/22 04:47:49;;;;;;;14.50;7.40;;;;;;;9.21;100.00;100921.44;5079817;28;20056;-60
2022/04/22 04:50:14;;;;;;;13.10;7.30;;;;;;;9.21;100.00;100913.53;5079522;28;20146;-59
2022/04/22 04:52:41;;;;;;;12.63;7.13;;;;;;;9.23;100.00;100924.91;5079410;28;20028;-58
2022/04/22 04:55:08;;;;;;;12.20;7.32;;;;;;;9.23;99.85;100927.56;5078357;28;20127;-59
2022/04/22 04:57:34;;;;;;;11.30;6.63;;;;;;;9.23;99.83;100916.97;5079924;28;20032;-59
2022/04/22 05:00:00;;;;;;;10.93;7.10;;;;;;;9.26;99.83;100919.50;5079312;28;20117;-58
2022/04/22 05:02:26;;;;;;;12.73;7.80;;;;;;;9.33;99.12;100913.06;5064031;28;20028;-59
2022/04/22 05:04:51;;;;;;;12.63;7.70;;;;;;;9.38;98.52;100926.13;5071245;28;20112;-59
2022/04/22 05:07:17;;;;;;;11.88;7.18;;;;;;;9.39;98.30;100912.84;5095360;28;20420;-59
2022/04/22 05:09:42;;;;;;;12.23;7.47;;;;;;;9.35;97.89;100914.72;5093299;28;20834;-59
2022/04/22 05:12:10;;;;;;;14.65;7.25;;;;;;;9.36;97.73;100910.31;5094136;28;20028;-59
2022/04/22 05:14:35;;;;;;;11.00;6.88;;;;;;;9.43;97.59;100910.94;5093765;28;20119;-59
2022/04/22 05:17:01;;;;;;;12.25;7.40;;;;;;;9.40;97.20;100916.31;5094501;28;20162;-59
2022/04/22 05:19:26;;;;;;;15.27;7.68;;;;;;;9.41;97.29;100908.38;5076930;28;20039;-59
2022/04/22 05:21:52;;;;;;;12.73;7.25;;;;;;;9.44;97.11;100916.16;5093692;28;20103;-59
2022/04/22 05:24:17;;;;;;;12.35;7.82;;;;;;;9.46;97.15;100910.81;5092443;28;20036;-59
2022/04/22 05:26:42;;;;;;;11.10;6.85;;;;;;;9.42;97.27;100898.63;5093904;28;20024;-59
2022/04/22 05:32:36;;;;;;;12.43;7.47;;;;;;;9.42;97.19;100911.84;5092117;28;20535;-59
2022/04/22 05:34:40;;;;;;;12.15;7.63;;;;;;;9.45;97.34;100909.97;5083611;28;20110;-59
2022/04/22 05:37:06;;;;;;;9.82;7.07;;;;;;;9.51;97.11;100907.06;5081121;28;20031;-60
2022/04/22 05:39:31;;;;;;;11.07;7.63;;;;;;;9.53;96.99;100912.31;5094813;28;20122;-59
2022/04/22 05:41:59;;;;;;;13.73;7.93;;;;;;;9.58;97.13;100915.63;5081794;28;20028;-59
2022/04/22 05:44:24;;;;;;;11.65;7.85;;;;;;;9.58;97.03;100912.09;5060007;28;20040;-59
2022/04/22 05:46:49;;;;;;;11.65;7.60;;;;;;;9.61;97.06;100915.50;5063759;28;20036;-59
2022/04/22 05:49:15;;;;;;;14.88;7.97;;;;;;;9.63;97.30;100918.06;5060685;28;20065;-58
2022/04/22 05:51:40;;;;;;;12.52;8.35;;;;;;;9.71;97.47;100926.56;5084528;28;20107;-59
2022/04/22 05:54:06;;;;;;;12.82;8.15;;;;;;;9.79;96.57;100921.81;5065910;28;20131;-58
2022/04/22 05:56:34;;;;;;;12.02;8.00;;;;;;;9.81;96.04;100922.63;5092587;28;20422;-59
2022/04/22 05:58:59;;;;;;;11.90;8.40;;;;;;;9.82;96.21;100923.47;5090719;28;20036;-60
2022/04/22 06:01:25;;;;;;;13.50;7.93;;;;;;;9.89;96.31;100922.31;5094281;28;20031;-60
2022/04/22 06:03:50;;;;;;;11.00;8.02;;;;;;;9.95;95.73;100923.88;5088985;28;20830;-59
2022/04/22 06:06:15;;;;;;;12.75;8.77;;;;;;;9.98;95.00;100926.38;5060809;28;20042;-59
2022/04/22 06:11:25;;;;;;;13.75;8.70;;;;;;;10.11;95.34;100924.09;5101679;28;20097;-58
2022/04/22 06:13:50;;;;;;;13.27;9.00;;;;;;;10.07;94.25;100918.06;5082448;28;20558;-59
2022/04/22 06:16:16;;;;;;;14.50;8.85;;;;;;;10.10;94.18;100915.31;5077275;28;20028;-59
2022/04/22 06:18:41;;;;;;;14.13;8.98;;;;;;;10.17;93.91;100919.38;5081123;28;20035;-59
2022/04/22 06:21:06;;;;;;;13.55;8.48;;;;;;;10.26;93.40;100906.72;5094871;28;20038;-59
2022/04/22 06:23:32;;;;;;;12.95;8.57;;;;;;;10.26;92.96;100914.66;5097201;28;20122;-60
2022/04/22 06:25:57;;;;;;;14.88;8.75;;;;;;;10.26;92.55;100907.56;5092600;28;20560;-59
2022/04/22 06:28:23;;;;;;;15.60;8.95;;;;;;;10.27;92.70;100911.94;5073993;28;20035;-59
2022/04/22 06:30:49;;;;;;;14.55;8.95;;;;;;;10.32;92.47;100902.00;5110250;28;20429;-59
2022/04/22 06:33:16;;;;;;;15.85;9.48;;;;;;;10.37;92.74;100903.63;5106421;28;20127;-60
2022/04/22 06:35:41;;;;;;;16.27;9.40;;;;;;;10.42;92.09;100899.00;5092640;28;20023;-59
2022/04/22 06:38:08;;;;;;;15.75;9.38;;;;;;;10.40;92.12;100904.34;5092657;28;20056;-59
2022/04/22 06:46:03;;;;;;;15.38;10.13;;;;;;;10.56;91.41;100893.97;5072047;28;20403;-59
2022/04/22 06:48:35;;;;;;;15.07;9.85;;;;;;;10.63;91.25;100890.09;5072410;28;20028;-59
2022/04/22 06:51:01;;;;;;;;;;;;;;;10.68;90.84;100896.97;5071362;28;20400;-59
2022/04/22 06:53:28;;;;;;;15.07;9.85;;;;;;;10.74;90.71;100891.41;5071757;28;19920;-59
2022/04/22 06:55:58;;;;;;;16.35;10.43;;;;;;;10.70;90.22;100885.41;5071984;28;20031;-59
2022/04/22 06:58:25;;;;;;;16.02;10.05;;;;;;;10.68;90.39;100889.91;5072178;28;20078;-59
2022/04/22 07:00:51;;;;;;;16.98;10.45;;;;;;;10.73;90.37;100895.00;5074494;28;20036;-60
2022/04/22 07:03:17;;;;;;;17.13;10.27;;;;;;;10.88;90.09;100904.94;5078706;28;20028;-59
2022/04/22 07:05:44;;;;;;;18.70;11.23;;;;;;;10.89;90.27;100896.03;5071868;28;20024;-58
2022/04/22 07:08:14;;;;;;;20.23;10.20;;;;;;;10.92;89.35;100898.56;5067304;28;20033;-57
2022/04/22 07:10:41;;;;;;;17.88;10.35;;;;;;;10.98;89.05;100890.34;5070262;28;20119;-59
2022/04/22 07:13:07;;;;;;;19.10;11.10;;;;;;;11.04;89.20;100899.78;5063726;28;20033;-59
2022/04/22 07:15:32;;;;;;;19.90;11.25;;;;;;;11.20;88.51;100896.41;5059939;28;20024;-60
2022/04/22 07:17:58;;;;;;;19.77;10.63;;;;;;;11.30;88.62;100893.28;5071853;28;20024;-58
2022/04/22 07:20:24;;;;;;;15.02;9.88;;;;;;;11.47;88.08;100897.78;5071660;28;20079;-58
2022/04/22 07:22:50;;;;;;;14.80;10.27;;;;;;;11.63;87.20;100892.56;5071109;28;20021;-58
2022/04/22 07:25:16;;;;;;;16.63;10.60;;;;;;;11.70;86.10;100897.59;5071915;28;20094;-59
2022/04/22 07:27:44;;;;;;;17.23;10.05;;;;;;;11.71;85.91;100896.66;5071597;28;20028;-60
2022/04/22 07:30:17;;;;;;;18.73;11.48;;;;;;;11.70;85.19;100890.50;5086957;28;20060;-59
2022/04/22 07:32:47;;;;;;;17.63;11.30;;;;;;;11.77;85.36;100885.75;5088994;28;20109;-59
2022/04/22 07:35:14;;;;;;;16.13;10.30;;;;;;;11.93;84.81;100892.03;5094760;28;20089;-60
2022/04/22 07:37:41;;;;;;;17.42;10.77;;;;;;;12.03;84.27;100888.94;5094616;28;20027;-59
2022/04/22 07:40:07;;;;;;;15.52;10.93;;;;;;;11.87;84.48;100875.56;5085032;28;20523;-59
2022/04/22 07:42:34;;;;;;;15.85;10.65;;;;;;;12.04;85.04;100880.03;5076487;28;20032;-59
2022/04/22 07:47:47;;;;;;;18.27;11.27;;;;;;;12.13;83.83;100885.75;5067206;28;20042;-58
2022/04/22 07:50:14;;;;;;;16.27;10.20;;;;;;;12.29;83.13;100887.63;5058105;28;20043;-58
2022/04/22 07:52:44;;;;;;;20.65;11.70;;;;;;;12.49;83.20;100889.22;5072899;28;20575;-58
2022/04/22 07:55:10;;;;;;;16.42;10.40;;;;;;;12.44;81.56;100889.47;5074834;28;20028;-59
2022/04/22 07:57:36;;;;;;;17.98;10.10;;;;;;;12.39;81.48;100883.56;5073872;28;20100;-58
2022/04/22 08:00:03;;;;;;;21.17;10.70;;;;;;;12.45;81.23;100891.22;5074234;28;20039;-59
2022/04/22 08:02:28;;;;;;;16.90;10.48;;;;;;;12.37;80.86;100873.94;5074826;28;20071;-58
2022/04/22 08:04:54;;;;;;;17.02;9.98;;;;;;;12.42;81.51;100880.72;5054756;28;20448;-58
2022/04/22 08:07:19;;;;;;;15.50;10.50;;;;;;;12.54;80.86;100876.56;5061406;28;20029;-59
2022/04/22 08:09:45;;;;;;;17.38;10.18;;;;;;;12.74;80.80;100872.84;5071581;28;20029;-59
2022/04/22 08:12:12;;;;;;;17.60;10.32;;;;;;;12.91;79.74;100873.75;5073428;28;20558;-59
2022/04/22 08:14:40;;;;;;;17.23;9.95;;;;;;;12.98;78.63;100871.63;5063191;28;20037;-59
2022/04/22 08:17:06;;;;;;;16.95;9.82;;;;;;;13.14;76.96;100866.34;5060237;28;20021;-59
2022/04/22 08:19:32;;;;;;;15.23;9.40;;;;;;;13.31;76.32;100873.38;5072205;28;20106;-59
2022/04/22 08:21:57;;;;;;;14.70;9.73;;;;;;;13.24;76.31;100873.69;5072777;28;20039;-59
2022/04/22 08:24:23;;;;;;;16.10;10.55;;;;;;;13.20;76.83;100873.97;5073396;28;20028;-59
2022/04/22 08:26:49;;;;;;;17.65;9.30;;;;;;;13.32;77.10;100867.09;5061710;28;20037;-59
2022/04/22 08:29:14;;;;;;;14.60;9.68;;;;;;;13.30;76.18;100866.31;5059568;28;20028;-59
2022/04/22 08:31:39;;;;;;;15.05;10.48;;;;;;;13.28;76.42;100866.41;5078819;28;20449;-59
2022/04/22 08:34:05;;;;;;;17.83;10.43;;;;;;;13.33;75.44;100859.03;5090215;28;20024;-59
2022/04/22 08:36:31;;;;;;;16.92;9.32;;;;;;;13.51;75.83;100862.50;5100620;28;20039;-59
2022/04/22 08:38:57;;;;;;;16.77;9.80;;;;;;;13.65;74.70;100853.72;5094564;28;20050;-58
2022/04/22 08:41:23;;;;;;;15.60;8.88;;;;;;;13.68;73.77;100850.91;5076450;28;20495;-58
2022/04/22 08:43:51;;;;;;;16.30;9.57;;;;;;;13.84;74.05;100855.31;5093962;28;20024;-60
2022/04/22 08:51:46;;;;;;;14.38;9.02;;;;;;;14.23;72.18;100837.91;5080038;28;20039;-59
2022/04/22 08:54:13;;;;;;;17.75;9.60;;;;;;;14.39;69.87;100838.69;5087028;28;20025;-59
2022/04/22 08:56:39;;;;;;;14.60;9.00;;;;;;;14.22;69.69;100841.53;5091930;28;20118;-59
2022/04/22 08:59:05;;;;;;;16.65;9.27;;;;;;;14.34;70.55;100831.97;5072447;28;20111;-58
2022/04/22 09:01:30;;;;;;;15.80;8.70;;;;;;;14.78;68.91;100835.50;5089595;28;20380;-59
2022/04/22 09:03:56;;;;;;;16.85;9.55;;;;;;;14.85;67.08;100835.03;5093520;28;20034;-59
2022/04/22 09:06:23;;;;;;;14.48;9.23;;;;;;;15.06;66.99;100830.16;5083358;28;20118;-58
2022/04/22 09:08:50;;;;;;;14.35;8.57;;;;;;;15.37;65.80;100825.50;5097658;28;20424;-59
2022/04/22 09:11:16;;;;;;;14.05;9.48;;;;;;;15.65;65.26;100820.16;5075911;28;20470;-59
2022/04/22 09:13:41;;;;;;;14.23;8.50;;;;;;;16.27;62.58;100821.38;5093356;28;20032;-57
2022/04/22 09:16:08;;;;;;;13.25;8.55;;;;;;;16.54;62.36;100811.41;5075925;28;20368;-60
2022/04/22 09:18:37;;;;;;;15.65;7.85;;;;;;;17.30;58.32;100816.75;5076341;28;20115;-59
2022/04/22 09:21:06;;;;;;;13.90;8.65;;;;;;;17.67;55.42;100802.41;5094004;28;20027;-58
2022/04/22 09:23:34;;;;;;;13.95;8.13;;;;;;;18.79;53.27;100805.44;5093169;28;20057;-58
2022/04/22 09:26:02;;;;;;;11.70;7.57;;;;;;;19.38;49.22;100806.94;5093983;28;20024;-58
2022/04/22 09:28:28;;;;;;;11.93;8.07;;;;;;;19.37;47.38;100812.44;5082903;28;20149;-58
2022/04/22 09:30:59;;;;;;;14.73;8.70;;;;;;;17.78;51.00;100804.28;5086921;28;20131;-58
2022/04/22 09:33:24;;;;;;;13.75;8.05;;;;;;;18.65;49.80;100803.84;5092371;28;20086;-58
2022/04/22 09:44:24;;;;;;;16.00;7.95;;;;;;;19.97;44.39;100784.13;5092787;28;20051;-58
2022/04/22 09:47:10;;;;;;;15.18;8.18;;;;;;;20.13;44.74;100786.31;5054953;28;20024;-58
2022/04/22 09:49:40;;;;;;;12.57;8.07;;;;;;;20.55;43.10;100788.09;5073187;28;20032;-59
2022/04/22 09:52:06;;;;;;;12.32;7.72;;;;;;;20.57;43.37;100778.03;5073070;28;20025;-59
2022/04/22 09:54:31;;;;;;;13.60;7.70;;;;;;;20.67;42.68;100766.47;5047395;28;20437;-57
2022/04/22 09:56:58;;;;;;;12.30;7.65;;;;;;;20.82;42.04;100773.22;5079536;28;20130;-59
2022/04/22 09:59:25;;;;;;;11.52;7.15;;;;;;;20.40;42.38;100763.41;5071452;28;20032;-59
2022/04/22 10:01:51;;;;;;;12.52;7.38;;;;;;;20.77;41.65;100760.16;5095616;28;20035;-59
2022/04/22 10:04:21;;;;;;;14.93;7.25;;;;;;;21.54;41.64;100759.56;5094431;28;20035;-59
2022/04/22 10:06:48;;;;;;;12.53;6.97;;;;;;;22.18;39.36;100763.44;5113656;28;20050;-59
2022/04/22 10:09:14;;;;;;;14.55;8.07;;;;;;;22.59;38.23;100768.56;5093541;28;20281;-59
2022/04/22 10:11:47;;;;;;;13.88;6.90;;;;;;;22.72;37.20;100771.78;5107204;28;20487;-60
2022/04/22 10:14:14;;;;;;;10.95;6.95;;;;;;;22.38;38.58;100764.25;5105187;28;20111;-59
2022/04/22 10:16:39;;;;;;;13.85;7.10;;;;;;;22.57;37.30;100760.63;5073194;28;20490;-59
2022/04/22 10:19:05;;;;;;;12.70;6.97;;;;;;;22.81;37.36;100748.41;5088360;28;20024;-59
2022/04/22 10:21:32;;;;;;;11.48;6.75;;;;;;;22.74;37.29;100753.56;5081444;28;20085;-58
2022/04/22 10:23:58;;;;;;;11.48;7.68;;;;;;;22.88;36.24;100754.09;5066542;28;20521;-59
2022/04/22 10:26:27;;;;;;;11.35;6.43;;;;;;;23.06;35.60;100748.69;5074614;28;20495;-59
2022/04/22 10:28:54;;;;;;;12.00;7.13;;;;;;;23.04;35.50;100748.88;5070035;28;20039;-59
2022/04/22 10:31:22;;;;;;;9.35;6.88;;;;;;;22.98;36.62;100757.56;5075634;28;20118;-60
2022/04/22 10:33:48;;;;;;;10.35;6.78;;;;;;;23.14;35.18;100762.28;5075052;28;20040;-58
2022/04/22 10:36:14;;;;;;;14.80;7.88;;;;;;;22.48;36.35;100753.44;5092819;28;20049;-60
2022/04/22 10:38:44;;;;;;;12.75;7.10;;;;;;;22.18;37.88;100757.22;5076481;28;20407;-59
2022/04/22 10:41:14;;;;;;;13.95;7.07;;;;;;;21.64;37.87;100746.09;5092834;28;20032;-61
2022/04/22 10:43:40;;;;;;;13.05;7.13;;;;;;;21.55;39.92;100750.50;5091887;28;20020;-59
2022/04/22 10:49:11;;;;;;;10.40;7.38;;;;;;;22.14;37.25;100745.84;5089605;28;20043;-59
2022/04/22 10:51:55;;;;;;;;;;;;;;;22.24;35.84;100740.44;5090213;28;20387;-59
2022/04/22 10:54:41;;;;;;;10.63;6.75;;;;;;;20.78;39.12;100744.84;5093247;28;19919;-59
2022/04/22 10:57:17;;;;;;;14.32;7.00;;;;;;;20.59;40.89;100742.94;5111811;28;20394;-59
2022/04/22 10:59:43;;;;;;;10.63;6.55;;;;;;;20.71;39.23;100723.03;5092174;28;20093;-60
2022/04/22 11:02:32;;;;;;;13.82;6.05;;;;;;;20.92;39.98;100719.38;5091883;28;20028;-59
2022/04/22 11:05:19;;;;;;;8.90;6.05;;;;;;;20.47;40.30;100717.97;5108043;28;20539;-59
2022/04/22 11:07:50;;;;;;;8.20;6.13;;;;;;;20.03;41.80;100736.19;5082138;28;20112;-59
2022/04/22 11:10:36;;;;;;;13.07;6.60;;;;;;;20.09;41.76;100716.81;5092126;28;20123;-59
2022/04/22 11:13:02;;;;;;;14.70;7.25;;;;;;;20.03;42.84;100741.56;5075674;28;20089;-59
2022/04/22 11:15:42;;;;;;;11.65;6.97;;;;;;;19.57;44.28;100732.91;5109032;28;20032;-58
2022/04/22 11:18:12;;;;;;;10.33;6.07;;;;;;;20.27;42.50;100727.81;5091852;28;20032;-59
2022/04/22 11:20:38;;;;;;;9.07;5.82;;;;;;;20.02;43.92;100719.19;5092116;28;20016;-58
2022/04/22 11:23:06;;;;;;;10.93;6.15;;;;;;;19.90;42.79;100718.44;5091742;28;20107;-59
2022/04/22 11:25:33;;;;;;;12.38;6.65;;;;;;;19.57;43.10;100728.34;5075558;28;20024;-59
2022/04/22 11:27:59;;;;;;;9.98;5.30;;;;;;;20.06;41.80;100709.88;5082857;28;20452;-58
2022/04/22 11:30:26;;;;;;;8.80;5.75;;;;;;;20.22;41.50;100712.09;5091394;28;20020;-58
2022/04/22 11:33:23;;;;;;;13.57;6.57;;;;;;;21.30;40.90;100706.13;5095577;28;20044;-60
2022/04/22 11:35:50;;;;;;;11.55;7.03;;;;;;;22.24;40.20;100705.38;5091385;28;20418;-58
2022/04/22 11:38:16;;;;;;;10.50;7.00;;;;;;;22.44;37.01;100691.81;5093809;28;20032;-60
2022/04/22 11:40:43;;;;;;;12.20;5.75;;;;;;;21.84;38.21;100707.34;5092896;28;20134;-59
2022/04/22 11:43:12;;;;;;;7.82;5.72;;;;;;;21.96;37.78;100709.84;5100637;28;20024;-59
2022/04/22 11:45:45;;;;;;;9.40;5.90;;;;;;;22.50;37.43;100705.56;5097528;28;20039;-59
2022/04/22 11:48:12;;;;;;;10.18;6.30;;;;;;;20.69;39.49;100710.69;5093498;28;20091;-58
2022/04/22 11:50:39;;;;;;;10.27;6.22;;;;;;;19.94;41.65;100708.28;5092056;28;20039;-59
2022/04/22 11:53:14;;;;;;;9.65;5.65;;;;;;;20.82;39.40;100705.06;5090738;28;20020;-58
2022/04/22 11:55:42;;;;;;;13.75;6.45;;;;;;;20.28;41.60;100719.63;5073728;28;20035;-60
2022/04/22 11:58:09;;;;;;;9.15;5.75;;;;;;;20.09;40.84;100703.38;5091561;28;20028;-59
2022/04/22 12:06:07;;;;;;;13.13;5.70;;;;;;;18.53;44.74;100705.59;5090071;28;20039;-58
2022/04/22 12:08:33;;;;;;;9.88;6.43;;;;;;;17.70;46.33;100708.47;5089504;28;20036;-60
2022/04/22 12:10:58;;;;;;;8.50;5.82;;;;;;;17.62;47.66;100711.75;5090747;28;20461;-58
2022/04/22 12:13:26;;;;;;;8.10;5.60;;;;;;;17.62;49.35;100702.84;5039322;28;20036;-58
2022/04/22 12:15:51;;;;;;;9.80;5.97;;;;;;;18.17;45.89;100703.06;5072567;28;20415;-60
2022/04/22 12:18:28;;;;;;;10.57;5.97;;;;;;;18.48;46.06;100695.28;5090823;28;20043;-59
2022/04/22 12:20:54;;;;;;;9.10;5.65;;;;;;;18.75;44.46;100691.31;5084322;28;20047;-59
2022/04/22 12:23:19;;;;;;;11.25;5.47;;;;;;;19.11;43.04;100683.91;5083976;28;20395;-59